Time;durP1;ratioP1;P1;durP2;ratioP2;P2;SDS_P1;SDS_P2;PMS_P1;PMS_P2;Temp;Humidity;BMP_temperature;BMP_pressure;BME280_temperature;BME280_humidity;BME280_pressure;Samples;Min_cycle;Max_cycle;Signal;HPM_P1;HPM_P2
2022/08/18 00:01:46;;;;;;;1.53;1.13;;;17.70;99.90;;;;;;5114551;28;20825;-80
2022/08/18 00:04:13;;;;;;;0.90;0.80;;;17.70;99.90;;;;;;5114654;28;20470;-80
2022/08/18 00:06:40;;;;;;;2.10;0.80;;;17.70;99.90;;;;;;5114582;27;20446;-80
2022/08/18 00:09:09;;;;;;;2.80;0.70;;;17.70;99.90;;;;;;5114502;28;20446;-80
2022/08/18 00:11:40;;;;;;;0.80;0.80;;;17.70;99.90;;;;;;5114729;27;20564;-80
2022/08/18 00:14:08;;;;;;;1.67;1.10;;;17.70;99.90;;;;;;5114144;28;20931;-80
2022/08/18 00:16:34;;;;;;;0.70;0.50;;;17.70;99.90;;;;;;5114425;28;20439;-81
2022/08/18 00:19:03;;;;;;;1.07;0.90;;;17.80;99.90;;;;;;5114104;28;20439;-80
2022/08/18 00:21:29;;;;;;;0.80;0.70;;;17.90;99.90;;;;;;5113909;28;20520;-80
2022/08/18 00:23:56;;;;;;;1.03;0.80;;;17.90;99.90;;;;;;5114236;28;20613;-81
2022/08/18 00:26:23;;;;;;;0.70;0.70;;;18.00;99.90;;;;;;5114233;28;20438;-80
2022/08/18 00:28:50;;;;;;;0.87;0.50;;;18.10;99.90;;;;;;5114222;28;20450;-80
2022/08/18 00:31:17;;;;;;;0.90;0.90;;;18.10;99.90;;;;;;5113999;28;20883;-80
2022/08/18 00:33:43;;;;;;;1.80;1.17;;;18.20;99.90;;;;;;5114144;28;20439;-80
2022/08/18 00:36:12;;;;;;;1.80;1.03;;;18.20;99.90;;;;;;5114077;28;20447;-80
2022/08/18 00:38:39;;;;;;;1.47;0.70;;;18.30;99.90;;;;;;5113747;28;20451;-81
2022/08/18 00:41:06;;;;;;;2.30;1.37;;;18.30;99.90;;;;;;5113653;28;20970;-80
2022/08/18 00:43:41;;;;;;;1.93;1.00;;;18.30;99.90;;;;;;5114006;28;20442;-80
2022/08/18 00:46:09;;;;;;;1.70;0.70;;;18.30;99.90;;;;;;5113756;28;20445;-80
2022/08/18 00:48:37;;;;;;;1.87;0.73;;;18.30;99.90;;;;;;5113643;28;20447;-80
2022/08/18 00:51:10;;;;;;;1.37;1.00;;;18.30;99.90;;;;;;5113786;28;20491;-80
2022/08/18 00:53:44;;;;;;;0.90;0.60;;;18.30;99.90;;;;;;5113621;28;20440;-80
2022/08/18 00:56:14;;;;;;;2.10;1.30;;;18.20;99.90;;;;;;5114104;28;20434;-80
2022/08/18 00:58:47;;;;;;;1.97;0.80;;;18.20;99.90;;;;;;5113573;28;20947;-80
2022/08/18 01:01:16;;;;;;;1.10;0.90;;;18.20;99.90;;;;;;5113788;28;20641;-80
2022/08/18 01:03:50;;;;;;;1.30;0.80;;;18.20;99.90;;;;;;5113800;28;20810;-80
2022/08/18 01:06:24;;;;;;;1.47;1.07;;;18.20;99.90;;;;;;5113491;28;20893;-80
2022/08/18 01:08:53;;;;;;;0.90;0.70;;;18.20;99.90;;;;;;5113787;28;20431;-80
2022/08/18 01:11:20;;;;;;;1.13;0.80;;;18.10;99.90;;;;;;5113553;28;20490;-80
2022/08/18 01:13:46;;;;;;;1.93;0.70;;;18.10;99.90;;;;;;5113563;28;20651;-80
2022/08/18 01:21:53;;;;;;;0.93;0.80;;;18.20;99.90;;;;;;5113484;28;20461;-80
2022/08/18 01:25:58;;;;;;;1.97;0.97;;;18.20;99.90;;;;;;5113632;28;20430;-80
2022/08/18 01:27:16;;;;;;;1.07;0.90;;;18.30;99.90;;;;;;5113141;28;20447;-80
2022/08/18 01:29:44;;;;;;;1.13;0.60;;;18.20;99.90;;;;;;5113573;28;20458;-80
2022/08/18 01:32:15;;;;;;;2.50;1.13;;;18.30;99.90;;;;;;5113124;28;20475;-80
2022/08/18 01:34:46;;;;;;;1.43;0.80;;;18.30;99.90;;;;;;5113782;28;20447;-80
2022/08/18 01:37:14;;;;;;;1.63;1.40;;;18.30;99.90;;;;;;5113555;28;20438;-80
2022/08/18 01:39:43;;;;;;;1.13;0.70;;;18.20;99.90;;;;;;5113446;28;20556;-80
2022/08/18 01:42:10;;;;;;;1.33;1.03;;;18.30;99.90;;;;;;5113067;28;20461;-80
2022/08/18 01:44:39;;;;;;;2.83;1.07;;;18.30;99.90;;;;;;5113425;28;20454;-80
2022/08/18 01:47:06;;;;;;;1.53;1.00;;;18.20;99.90;;;;;;5114591;28;20450;-80
2022/08/18 01:49:32;;;;;;;1.27;1.17;;;18.30;99.90;;;;;;5117220;28;20808;-81
2022/08/18 01:51:59;;;;;;;0.70;0.70;;;18.30;99.90;;;;;;5116742;27;20981;-80
2022/08/18 01:54:28;;;;;;;2.97;1.07;;;18.20;99.90;;;;;;5117120;28;20443;-81
2022/08/18 01:56:57;;;;;;;0.50;0.50;;;18.20;99.90;;;;;;5116759;27;20976;-81
2022/08/18 01:59:24;;;;;;;1.33;0.80;;;18.20;99.90;;;;;;5117020;28;20447;-81
2022/08/18 02:01:54;;;;;;;0.90;0.77;;;18.10;99.90;;;;;;5116941;27;20467;-81
2022/08/18 02:04:26;;;;;;;2.03;0.70;;;18.10;99.90;;;;;;5117448;28;20937;-81
2022/08/18 02:06:53;;;;;;;0.70;0.70;;;18.20;99.90;;;;;;5116944;28;20435;-80
2022/08/18 02:09:20;;;;;;;2.50;1.50;;;18.10;99.90;;;;;;5116904;28;20439;-81
2022/08/18 02:11:46;;;;;;;1.90;1.30;;;18.20;99.90;;;;;;5116512;28;20577;-81
2022/08/18 02:14:14;;;;;;;1.20;0.93;;;18.20;99.90;;;;;;5117039;27;20439;-80
2022/08/18 02:16:41;;;;;;;1.00;0.60;;;18.20;99.90;;;;;;5116429;28;20938;-80
2022/08/18 02:19:08;;;;;;;1.17;0.70;;;18.20;99.90;;;;;;5116711;28;20455;-81
2022/08/18 02:21:35;;;;;;;1.90;1.23;;;18.20;99.90;;;;;;5116500;28;20996;-81
2022/08/18 02:24:02;;;;;;;1.20;1.13;;;18.20;99.90;;;;;;5116832;28;20447;-81
2022/08/18 02:26:28;;;;;;;1.97;1.57;;;18.20;99.90;;;;;;5116577;28;20496;-81
2022/08/18 02:28:55;;;;;;;1.23;0.87;;;18.20;99.90;;;;;;5116489;28;20470;-81
2022/08/18 02:31:25;;;;;;;0.60;0.60;;;18.20;99.90;;;;;;5116291;28;20486;-81
2022/08/18 02:33:52;;;;;;;1.10;0.60;;;18.20;99.90;;;;;;5116407;28;20529;-81
2022/08/18 02:36:19;;;;;;;1.03;0.70;;;18.10;99.90;;;;;;5116031;28;20447;-81
2022/08/18 02:38:46;;;;;;;1.60;1.30;;;18.10;99.90;;;;;;5116564;28;20453;-81
2022/08/18 02:41:14;;;;;;;1.93;1.10;;;18.10;99.90;;;;;;5116162;27;20813;-81
2022/08/18 02:43:42;;;;;;;0.87;0.70;;;18.10;99.90;;;;;;5116443;28;20454;-81
2022/08/18 02:46:09;;;;;;;1.60;1.00;;;18.10;99.90;;;;;;5116068;28;20934;-81
2022/08/18 02:48:37;;;;;;;0.80;0.80;;;18.10;99.90;;;;;;5116103;28;20482;-81
2022/08/18 02:51:07;;;;;;;1.20;1.10;;;18.10;99.90;;;;;;5115924;28;20470;-80
2022/08/18 02:53:34;;;;;;;2.30;0.90;;;18.10;99.90;;;;;;5116039;28;20451;-81
2022/08/18 02:56:16;;;;;;;3.30;1.07;;;18.20;99.90;;;;;;5115969;28;20450;-81
2022/08/18 02:58:43;;;;;;;0.73;0.73;;;18.20;99.90;;;;;;5114843;28;20434;-81
2022/08/18 03:01:10;;;;;;;1.17;0.60;;;18.20;99.90;;;;;;5115803;28;20542;-81
2022/08/18 03:03:38;;;;;;;1.83;0.80;;;18.20;99.90;;;;;;5115825;28;20538;-81
2022/08/18 03:06:05;;;;;;;3.03;1.00;;;18.30;99.90;;;;;;5115751;28;20797;-80
2022/08/18 03:08:32;;;;;;;2.20;0.80;;;18.20;99.90;;;;;;5115712;28;20462;-81
2022/08/18 03:10:59;;;;;;;2.60;1.40;;;18.20;99.90;;;;;;5115631;28;20527;-80
2022/08/18 03:13:26;;;;;;;1.30;0.90;;;18.10;99.90;;;;;;5115246;28;20485;-81
2022/08/18 03:15:53;;;;;;;4.53;0.80;;;18.10;99.90;;;;;;5115227;27;20451;-81
2022/08/18 03:18:21;;;;;;;1.10;1.00;;;18.10;99.90;;;;;;5115504;28;20447;-81
2022/08/18 03:20:51;;;;;;;1.23;0.70;;;18.10;99.90;;;;;;5115393;28;20538;-80
2022/08/18 03:23:18;;;;;;;2.10;1.20;;;18.10;99.90;;;;;;5115086;28;20847;-81
2022/08/18 03:25:46;;;;;;;2.17;1.30;;;18.00;99.90;;;;;;5115031;28;20812;-80
2022/08/18 03:28:14;;;;;;;2.60;1.10;;;18.00;99.90;;;;;;5115328;28;20447;-80
2022/08/18 03:30:41;;;;;;;1.20;0.70;;;18.10;99.90;;;;;;5115180;28;20474;-80
2022/08/18 03:33:07;;;;;;;1.17;0.57;;;18.10;99.90;;;;;;5115421;28;20475;-81
2022/08/18 03:35:36;;;;;;;1.73;0.73;;;18.10;99.90;;;;;;5115175;28;20457;-81
2022/08/18 03:38:04;;;;;;;3.00;1.00;;;18.10;99.90;;;;;;5115126;28;20443;-81
2022/08/18 03:40:31;;;;;;;1.13;0.80;;;18.10;99.90;;;;;;5114976;28;20447;-80
2022/08/18 03:42:58;;;;;;;1.17;1.07;;;18.10;99.90;;;;;;5114725;28;20438;-80
2022/08/18 03:45:27;;;;;;;2.53;0.80;;;18.20;99.90;;;;;;5114656;28;20458;-81
2022/08/18 03:47:54;;;;;;;1.17;0.70;;;18.10;99.90;;;;;;5114583;28;20861;-81
2022/08/18 03:50:24;;;;;;;1.83;1.13;;;18.10;99.90;;;;;;5114470;28;20443;-81
2022/08/18 03:52:51;;;;;;;2.10;0.90;;;18.10;99.90;;;;;;5114765;28;20475;-80
2022/08/18 03:55:19;;;;;;;1.07;0.97;;;18.10;99.90;;;;;;5114755;28;20463;-80
2022/08/18 03:57:46;;;;;;;1.17;0.97;;;18.10;99.90;;;;;;5114726;27;20454;-80
2022/08/18 04:00:13;;;;;;;0.90;0.80;;;18.10;99.90;;;;;;5114723;28;20466;-81
2022/08/18 04:02:40;;;;;;;1.83;1.33;;;18.10;99.90;;;;;;5114655;28;20446;-80
2022/08/18 04:05:10;;;;;;;2.60;1.00;;;18.10;99.90;;;;;;5114598;28;20458;-81
2022/08/18 04:07:36;;;;;;;0.70;0.70;;;18.10;99.90;;;;;;5114574;28;20496;-81
2022/08/18 04:10:04;;;;;;;3.80;0.93;;;18.10;99.90;;;;;;5114311;28;20508;-81
2022/08/18 04:12:32;;;;;;;0.80;0.80;;;18.10;99.90;;;;;;5113814;28;20847;-81
2022/08/18 04:14:59;;;;;;;1.33;0.80;;;18.10;99.90;;;;;;5114660;28;20769;-80
2022/08/18 04:17:26;;;;;;;1.20;1.10;;;18.10;99.90;;;;;;5114421;28;20443;-81
2022/08/18 04:19:54;;;;;;;1.50;1.10;;;18.10;99.90;;;;;;5114083;28;20522;-81
2022/08/18 04:22:21;;;;;;;1.30;1.10;;;18.10;99.90;;;;;;5114214;28;20817;-80
2022/08/18 04:24:49;;;;;;;1.63;1.20;;;18.10;99.90;;;;;;5114253;28;20459;-81
2022/08/18 04:27:16;;;;;;;1.37;0.83;;;18.10;99.90;;;;;;5114256;28;20446;-81
2022/08/18 04:29:44;;;;;;;1.27;0.83;;;18.10;99.90;;;;;;5113909;28;20904;-79
2022/08/18 04:32:11;;;;;;;1.67;1.00;;;18.10;99.90;;;;;;5113821;28;20470;-81
2022/08/18 04:34:38;;;;;;;2.67;0.83;;;18.10;99.90;;;;;;5114388;27;20447;-80
2022/08/18 04:37:04;;;;;;;1.67;0.70;;;18.10;99.90;;;;;;5114024;28;20454;-80
2022/08/18 04:39:31;;;;;;;3.20;1.53;;;18.20;99.90;;;;;;5113740;28;20450;-80
2022/08/18 04:42:00;;;;;;;4.07;1.20;;;18.10;99.90;;;;;;5113929;28;20466;-81
2022/08/18 04:44:27;;;;;;;1.40;0.80;;;18.20;99.90;;;;;;5113930;28;21036;-80
2022/08/18 04:46:55;;;;;;;2.60;1.20;;;18.20;99.90;;;;;;5113934;28;20789;-80
2022/08/18 04:49:25;;;;;;;1.40;0.70;;;18.20;99.90;;;;;;5113953;28;20443;-81
2022/08/18 04:54:36;;;;;;;1.63;1.00;;;18.20;99.90;;;;;;5113242;28;20434;-81
2022/08/18 04:57:07;;;;;;;1.37;0.90;;;18.30;99.90;;;;;;5113905;28;20484;-81
2022/08/18 04:59:35;;;;;;;1.60;1.07;;;18.30;99.90;;;;;;5113889;28;20432;-80
2022/08/18 05:02:07;;;;;;;1.37;1.07;;;18.20;99.90;;;;;;5113999;28;20451;-81
2022/08/18 05:04:34;;;;;;;1.37;1.13;;;18.20;99.90;;;;;;5113891;28;20882;-81
2022/08/18 05:07:01;;;;;;;1.20;1.10;;;18.30;99.90;;;;;;5113762;28;20450;-81
2022/08/18 05:09:28;;;;;;;1.43;1.13;;;18.30;99.90;;;;;;5113702;28;20439;-80
2022/08/18 05:11:54;;;;;;;2.03;1.63;;;18.30;99.90;;;;;;5113551;28;20469;-81
2022/08/18 05:14:21;;;;;;;1.43;1.33;;;18.30;99.90;;;;;;5113408;28;20431;-81
2022/08/18 05:16:48;;;;;;;1.93;1.73;;;18.30;99.90;;;;;;5113337;28;20954;-81
2022/08/18 05:19:20;;;;;;;0.77;0.77;;;18.30;99.90;;;;;;5113357;28;20939;-81
2022/08/18 05:21:47;;;;;;;1.27;1.07;;;18.30;99.90;;;;;;5114338;28;20470;-80
2022/08/18 05:24:14;;;;;;;1.70;1.00;;;18.40;99.90;;;;;;5117873;28;20457;-81
2022/08/18 05:26:41;;;;;;;2.03;0.97;;;18.50;99.90;;;;;;5117688;28;20447;-81
2022/08/18 05:29:08;;;;;;;2.80;1.20;;;18.50;99.90;;;;;;5117540;28;20533;-81
2022/08/18 05:31:35;;;;;;;6.00;0.70;;;18.60;99.90;;;;;;5117523;28;20467;-80
2022/08/18 05:34:02;;;;;;;1.63;0.83;;;18.60;99.90;;;;;;5117477;28;20506;-80
2022/08/18 05:36:51;;;;;;;1.27;1.10;;;18.70;99.90;;;;;;5117178;28;20815;-81
2022/08/18 05:39:24;;;;;;;0.90;0.90;;;18.80;99.90;;;;;;5117483;28;20439;-80
2022/08/18 05:41:58;;;;;;;2.33;1.40;;;18.80;99.90;;;;;;5117479;28;20474;-81
2022/08/18 05:44:30;;;;;;;1.17;0.70;;;18.90;99.90;;;;;;5117109;28;20436;-81
2022/08/18 05:47:03;;;;;;;2.33;1.43;;;18.90;99.90;;;;;;5117573;28;20427;-81
2022/08/18 05:49:31;;;;;;;2.33;1.40;;;19.00;99.90;;;;;;5116994;28;20853;-81
2022/08/18 05:52:02;;;;;;;0.97;0.87;;;19.00;99.90;;;;;;5116792;27;21008;-81
2022/08/18 05:57:26;;;;;;;3.40;1.23;;;19.00;99.90;;;;;;5116788;28;20492;-80
2022/08/18 05:59:53;;;;;;;1.03;0.80;;;19.00;99.90;;;;;;5116862;28;20957;-80
2022/08/18 06:02:31;;;;;;;0.80;0.80;;;19.10;99.90;;;;;;5116650;27;20832;-81
2022/08/18 06:05:02;;;;;;;1.47;0.90;;;19.20;99.90;;;;;;5116930;28;20455;-81
2022/08/18 06:07:40;;;;;;;1.93;1.13;;;19.10;99.90;;;;;;5116969;28;20439;-81
2022/08/18 06:10:09;;;;;;;1.13;0.97;;;19.10;99.90;;;;;;5117374;28;20790;-81
2022/08/18 06:12:40;;;;;;;1.80;1.67;;;19.20;99.90;;;;;;5116385;28;20486;-81
2022/08/18 06:15:14;;;;;;;0.70;0.70;;;19.20;99.90;;;;;;5116647;28;20832;-81
2022/08/18 06:18:14;;;;;;;1.00;0.83;;;19.30;99.90;;;;;;5116780;28;20837;-80
2022/08/18 06:21:01;;;;;;;2.10;1.20;;;19.40;99.90;;;;;;5084385;28;20567;-81
2022/08/18 06:23:39;;;;;;;1.47;1.17;;;19.50;99.90;;;;;;5103102;28;20527;-81
2022/08/18 06:26:13;;;;;;;2.70;1.40;;;19.50;99.90;;;;;;5095887;28;20919;-80
2022/08/18 06:28:51;;;;;;;2.00;0.90;;;19.60;99.90;;;;;;5108023;28;20481;-79
2022/08/18 06:31:23;;;;;;;1.40;0.80;;;19.60;99.90;;;;;;5116378;27;20554;-80
2022/08/18 06:33:59;;;;;;;4.30;1.43;;;19.70;99.90;;;;;;5102959;28;20463;-80
2022/08/18 06:36:35;;;;;;;3.33;1.10;;;19.70;99.90;;;;;;5095973;28;20436;-80
2022/08/18 06:39:25;;;;;;;1.70;1.30;;;19.70;99.90;;;;;;5095832;28;20451;-80
2022/08/18 06:41:52;;;;;;;1.30;1.00;;;19.80;99.90;;;;;;5095796;28;20474;-80
2022/08/18 06:44:23;;;;;;;1.33;1.17;;;19.80;99.90;;;;;;5111424;28;20448;-80
2022/08/18 06:46:56;;;;;;;1.43;1.10;;;19.90;99.90;;;;;;5116396;28;20439;-80
2022/08/18 06:49:34;;;;;;;5.03;1.40;;;19.90;99.90;;;;;;5116140;27;20431;-80
2022/08/18 06:52:20;;;;;;;1.70;1.27;;;19.90;99.90;;;;;;5115735;28;20467;-80
2022/08/18 06:54:49;;;;;;;2.00;1.13;;;19.90;99.90;;;;;;5116029;28;20434;-80
2022/08/18 06:57:25;;;;;;;2.47;0.90;;;19.90;99.90;;;;;;5115944;28;20471;-80
2022/08/18 06:59:58;;;;;;;1.97;1.20;;;19.90;99.90;;;;;;5115821;28;20468;-80
2022/08/18 07:02:37;;;;;;;1.20;1.10;;;20.00;99.90;;;;;;5115751;28;20543;-80
2022/08/18 07:05:06;;;;;;;1.73;1.23;;;20.10;99.90;;;;;;5115805;28;20461;-80
2022/08/18 07:07:37;;;;;;;4.90;1.70;;;20.20;99.90;;;;;;5115964;27;20466;-80
2022/08/18 07:10:23;;;;;;;1.70;1.10;;;20.20;99.90;;;;;;5115693;28;20435;-80
2022/08/18 07:12:50;;;;;;;1.80;0.80;;;20.20;99.90;;;;;;5115312;28;20498;-80
2022/08/18 07:15:24;;;;;;;1.37;1.27;;;20.20;99.90;;;;;;5115505;28;20438;-80
2022/08/18 07:17:50;;;;;;;1.30;1.17;;;20.20;99.90;;;;;;5115612;28;20431;-79
2022/08/18 07:20:21;;;;;;;1.60;1.27;;;20.10;99.90;;;;;;5115574;28;20486;-80
2022/08/18 07:22:56;;;;;;;1.70;1.53;;;20.00;99.90;;;;;;5115629;28;20433;-79
2022/08/18 07:25:28;;;;;;;1.77;1.20;;;19.90;99.90;;;;;;5115446;28;20453;-80
2022/08/18 07:27:55;;;;;;;1.77;1.23;;;19.70;99.90;;;;;;5115494;28;20538;-80
2022/08/18 07:30:31;;;;;;;3.80;1.73;;;19.70;99.90;;;;;;5115225;28;20450;-80
2022/08/18 07:33:08;;;;;;;4.10;1.73;;;19.50;99.90;;;;;;5115233;28;20474;-80
2022/08/18 07:35:39;;;;;;;4.47;1.83;;;19.40;99.90;;;;;;5115144;28;20419;-80
2022/08/18 07:38:16;;;;;;;2.80;1.37;;;19.40;99.90;;;;;;5115755;28;20438;-80
2022/08/18 07:40:51;;;;;;;1.63;0.90;;;19.40;99.90;;;;;;5115002;28;20475;-80
2022/08/18 07:43:22;;;;;;;2.73;1.47;;;19.40;99.90;;;;;;5115364;28;20411;-80
2022/08/18 07:45:49;;;;;;;2.70;1.37;;;19.40;99.90;;;;;;5114717;27;20438;-80
2022/08/18 07:48:19;;;;;;;3.30;1.47;;;19.30;99.90;;;;;;5115015;28;20435;-80
2022/08/18 07:50:58;;;;;;;2.93;1.20;;;19.30;99.90;;;;;;5115107;28;20463;-80
2022/08/18 07:53:34;;;;;;;1.93;1.10;;;19.40;99.90;;;;;;5114915;28;20470;-79
2022/08/18 07:56:05;;;;;;;2.57;1.17;;;19.40;99.90;;;;;;5114873;27;20427;-80
2022/08/18 07:58:37;;;;;;;1.63;0.97;;;19.40;99.90;;;;;;5115607;28;20743;-80
2022/08/18 08:01:14;;;;;;;1.23;0.90;;;19.50;99.90;;;;;;5114685;28;20475;-80
2022/08/18 08:03:50;;;;;;;1.73;1.30;;;19.60;99.90;;;;;;5114689;28;20427;-80
2022/08/18 08:06:22;;;;;;;0.80;0.60;;;19.60;99.90;;;;;;5114680;28;20439;-80
2022/08/18 08:09:00;;;;;;;2.23;1.40;;;19.80;99.90;;;;;;5114581;28;20435;-79
2022/08/18 08:11:43;;;;;;;1.33;1.23;;;19.90;99.90;;;;;;5114484;28;20481;-79
2022/08/18 08:14:24;;;;;;;1.37;1.27;;;19.90;99.90;;;;;;5114394;27;20462;-79
2022/08/18 08:16:58;;;;;;;1.63;0.93;;;19.90;99.90;;;;;;5114457;28;20426;-79
2022/08/18 08:19:42;;;;;;;1.57;0.90;;;20.00;99.90;;;;;;5113302;28;20940;-80
2022/08/18 08:22:19;;;;;;;5.93;2.00;;;20.10;99.90;;;;;;5114009;28;20471;-79
2022/08/18 08:24:55;;;;;;;2.83;0.90;;;20.20;99.90;;;;;;5113659;28;20438;-79
2022/08/18 08:27:33;;;;;;;4.17;1.30;;;20.30;99.90;;;;;;5114257;28;20431;-79
2022/08/18 08:30:05;;;;;;;6.73;2.00;;;20.50;99.90;;;;;;5114310;28;20475;-79
2022/08/18 08:32:33;;;;;;;3.10;1.50;;;20.60;99.90;;;;;;5114387;28;20475;-79
2022/08/18 08:35:06;;;;;;;5.90;1.70;;;20.80;99.90;;;;;;5113793;28;21008;-79
2022/08/18 08:37:38;;;;;;;1.53;1.30;;;21.10;99.90;;;;;;5114100;28;20428;-79
2022/08/18 08:40:08;;;;;;;1.80;1.53;;;21.30;99.90;;;;;;5114156;28;20442;-79
2022/08/18 08:42:43;;;;;;;1.10;1.00;;;21.40;99.90;;;;;;5113696;28;20462;-79
2022/08/18 08:45:13;;;;;;;3.30;1.23;;;21.60;99.90;;;;;;5113769;28;20959;-80
2022/08/18 08:47:45;;;;;;;3.43;1.73;;;21.70;99.90;;;;;;5114044;28;20423;-79
2022/08/18 08:50:14;;;;;;;2.03;1.60;;;21.70;99.90;;;;;;5114025;28;20437;-79
2022/08/18 08:52:47;;;;;;;3.67;1.73;;;21.70;99.90;;;;;;5114681;28;20485;-79
2022/08/18 08:55:18;;;;;;;5.77;2.17;;;21.70;99.90;;;;;;5113695;28;20482;-79
2022/08/18 08:57:52;;;;;;;1.83;1.57;;;21.90;99.90;;;;;;5113046;28;20470;-79
2022/08/18 09:00:20;;;;;;;2.23;1.40;;;21.90;99.90;;;;;;5113787;28;20479;-79
2022/08/18 09:02:59;;;;;;;4.20;2.00;;;22.20;99.90;;;;;;5113752;28;20450;-79
2022/08/18 09:05:29;;;;;;;3.17;1.07;;;22.50;99.90;;;;;;5113795;28;20434;-79
2022/08/18 09:08:27;;;;;;;3.13;1.40;;;22.80;99.90;;;;;;5113506;28;20803;-79
2022/08/18 09:11:25;;;;;;;1.80;1.57;;;23.20;99.90;;;;;;5092344;28;20608;-79
2022/08/18 09:14:10;;;;;;;1.57;1.17;;;23.60;99.90;;;;;;5107634;28;20837;-79
2022/08/18 09:16:49;;;;;;;3.70;2.30;;;23.90;99.90;;;;;;5114430;27;20446;-79
2022/08/18 09:19:39;;;;;;;3.40;2.17;;;24.00;99.90;;;;;;5113906;28;20189;-79
2022/08/18 09:22:16;;;;;;;2.50;1.47;;;24.10;99.90;;;;;;5113593;28;20260;-79
2022/08/18 09:24:48;;;;;;;2.08;1.88;;;24.20;99.90;;;;;;5113685;28;20203;-79
2022/08/18 09:27:30;;;;;;;2.63;1.77;;;24.30;99.90;;;;;;5113820;28;20192;-79
2022/08/18 09:30:00;;;;;;;2.58;1.85;;;24.30;99.90;;;;;;5113582;28;20271;-79
2022/08/18 09:32:43;;;;;;;3.75;2.40;;;24.40;99.90;;;;;;5111777;28;20217;-83
2022/08/18 09:35:20;;;;;;;4.60;1.90;;;24.40;99.90;;;;;;5094693;28;20205;-79
2022/08/18 09:41:30;;;;;;;2.85;1.98;;;24.20;99.90;;;;;;5092979;28;20664;-79
2022/08/18 09:43:38;;;;;;;1.70;1.50;;;24.20;99.90;;;;;;5092734;28;20197;-79
2022/08/18 09:46:07;;;;;;;2.63;1.77;;;24.10;99.90;;;;;;5093147;28;20193;-78
2022/08/18 09:48:37;;;;;;;1.98;1.67;;;24.10;99.90;;;;;;5093107;28;20201;-79
2022/08/18 09:51:32;;;;;;;4.78;2.08;;;24.10;99.90;;;;;;5092711;28;20579;-79
2022/08/18 09:54:23;;;;;;;1.53;1.20;;;24.20;99.90;;;;;;5092702;28;20205;-78
2022/08/18 09:57:18;;;;;;;3.00;2.08;;;24.00;99.90;;;;;;5093053;28;20267;-79
2022/08/18 10:00:15;;;;;;;3.08;1.25;;;24.00;99.90;;;;;;5093031;28;20185;-78
2022/08/18 10:03:05;;;;;;;4.13;1.80;;;24.00;99.90;;;;;;5093087;28;20285;-78
2022/08/18 10:05:34;;;;;;;3.70;2.58;;;23.90;99.90;;;;;;5092951;28;20209;-78
2022/08/18 10:08:29;;;;;;;4.55;2.38;;;24.10;99.90;;;;;;5093939;28;20198;-79
2022/08/18 10:11:01;;;;;;;3.40;2.38;;;24.40;99.90;;;;;;5096456;28;20240;-78
2022/08/18 10:13:35;;;;;;;6.70;2.17;;;24.40;99.90;;;;;;5096101;28;20324;-78
2022/08/18 10:16:13;;;;;;;2.45;1.45;;;24.60;99.90;;;;;;5095819;28;20204;-78
2022/08/18 10:18:58;;;;;;;2.45;1.80;;;24.70;99.90;;;;;;5096427;28;20189;-78
2022/08/18 10:21:28;;;;;;;2.35;1.35;;;25.00;99.90;;;;;;5095802;28;20716;-78
2022/08/18 10:23:59;;;;;;;4.00;1.98;;;25.00;99.90;;;;;;5096138;28;20570;-78
2022/08/18 10:27:07;;;;;;;3.13;2.38;;;25.00;99.90;;;;;;5096278;28;20186;-78
2022/08/18 10:29:56;;;;;;;2.08;1.10;;;25.00;99.90;;;;;;5095896;28;20601;-78
2022/08/18 10:32:40;;;;;;;2.30;2.05;;;25.20;99.90;;;;;;5095774;28;20217;-78
2022/08/18 10:35:51;;;;;;;2.13;1.85;;;25.40;99.90;;;;;;5095909;28;20680;-79
2022/08/18 10:38:45;;;;;;;1.77;1.55;;;25.40;99.90;;;;;;5095430;28;20205;-78
2022/08/18 10:41:21;;;;;;;1.60;1.25;;;25.30;99.90;;;;;;5093887;28;20315;-78
2022/08/18 10:43:50;;;;;;;3.25;1.90;;;25.40;99.90;;;;;;5095955;28;20198;-78
2022/08/18 10:46:20;;;;;;;2.28;2.03;;;25.60;99.90;;;;;;5095931;28;20209;-78
2022/08/18 10:49:15;;;;;;;4.40;1.67;;;25.50;99.90;;;;;;5095707;28;20200;-78
2022/08/18 10:51:54;;;;;;;2.35;1.55;;;25.50;99.90;;;;;;5096146;28;20278;-78
2022/08/18 10:54:32;;;;;;;5.35;2.35;;;25.60;99.90;;;;;;5095657;28;20205;-78
2022/08/18 10:57:11;;;;;;;2.38;2.20;;;25.60;99.90;;;;;;5095677;28;20208;-78
2022/08/18 10:59:43;;;;;;;3.58;2.05;;;25.40;99.90;;;;;;5095306;28;20668;-78
2022/08/18 11:02:34;;;;;;;3.55;1.75;;;25.20;99.90;;;;;;5095504;28;20227;-78
2022/08/18 11:05:05;;;;;;;2.42;1.88;;;24.90;99.90;;;;;;5095715;28;20243;-78
2022/08/18 11:07:34;;;;;;;2.95;2.70;;;24.80;99.90;;;;;;5095480;28;20185;-78
2022/08/18 11:10:17;;;;;;;8.43;2.50;;;24.50;99.90;;;;;;5095349;28;20342;-78
2022/08/18 11:13:11;;;;;;;3.13;2.88;;;24.40;99.90;;;;;;5095061;28;20233;-78
2022/08/18 11:15:49;;;;;;;2.00;1.55;;;24.30;99.90;;;;;;5093368;28;20225;-78
2022/08/18 11:18:29;;;;;;;3.42;2.08;;;24.30;99.90;;;;;;5095266;28;20204;-78
2022/08/18 11:21:24;;;;;;;3.35;1.70;;;24.30;99.90;;;;;;5094177;28;20221;-78
2022/08/18 11:24:06;;;;;;;2.83;2.03;;;24.20;99.90;;;;;;5095150;28;20178;-78
2022/08/18 11:26:36;;;;;;;3.03;1.60;;;24.10;99.90;;;;;;5095111;28;20220;-78
2022/08/18 11:29:17;;;;;;;2.33;2.10;;;24.10;99.90;;;;;;5095013;28;20216;-78
2022/08/18 11:31:45;;;;;;;3.05;2.22;;;24.10;99.90;;;;;;5094653;28;20232;-78
2022/08/18 11:34:14;;;;;;;4.20;2.35;;;24.20;99.90;;;;;;5094816;28;20311;-78
2022/08/18 11:36:41;;;;;;;1.83;1.38;;;24.20;99.90;;;;;;5094893;28;20197;-78
2022/08/18 11:39:10;;;;;;;1.77;1.20;;;24.10;99.90;;;;;;5094819;28;20208;-78
2022/08/18 11:41:40;;;;;;;2.97;2.45;;;24.20;99.90;;;;;;5094695;28;20225;-78
2022/08/18 11:44:15;;;;;;;2.28;2.08;;;24.30;99.90;;;;;;5094944;28;20205;-78
2022/08/18 11:46:42;;;;;;;1.77;1.67;;;24.40;99.90;;;;;;5094771;28;20612;-78
2022/08/18 11:49:16;;;;;;;2.72;2.42;;;24.40;99.90;;;;;;5094873;28;20209;-80
2022/08/18 11:51:55;;;;;;;2.28;2.05;;;24.40;99.90;;;;;;5094188;28;20223;-78
2022/08/18 11:54:31;;;;;;;4.55;2.25;;;24.40;99.90;;;;;;5094477;28;20201;-78
2022/08/18 11:57:31;;;;;;;5.63;2.53;;;24.40;99.90;;;;;;5094489;28;20193;-78
2022/08/18 11:59:59;;;;;;;4.65;1.55;;;24.40;99.90;;;;;;5094474;28;20239;-77
2022/08/18 12:02:26;;;;;;;1.92;1.60;;;24.40;99.90;;;;;;5094239;28;20220;-77
2022/08/18 12:04:59;;;;;;;2.15;1.70;;;24.40;99.90;;;;;;5094265;28;20229;-77
2022/08/18 12:07:31;;;;;;;3.75;2.00;;;24.40;99.90;;;;;;5094309;28;20272;-77
2022/08/18 12:10:19;;;;;;;4.03;2.58;;;24.30;99.90;;;;;;5094264;28;20266;-77
2022/08/18 12:12:48;;;;;;;2.00;1.77;;;24.30;99.90;;;;;;5094024;28;20237;-77
2022/08/18 12:15:31;;;;;;;2.85;1.90;;;24.30;99.90;;;;;;5094035;28;20221;-77
2022/08/18 12:17:57;;;;;;;2.70;2.03;;;24.40;99.90;;;;;;5094042;28;20208;-77
2022/08/18 12:20:24;;;;;;;4.15;2.15;;;24.40;99.90;;;;;;5093989;28;20580;-77
2022/08/18 12:22:55;;;;;;;4.60;2.80;;;24.40;99.90;;;;;;5094002;28;20202;-77
2022/08/18 12:25:21;;;;;;;5.28;2.00;;;24.50;99.90;;;;;;5094338;28;20201;-77
2022/08/18 12:27:48;;;;;;;2.15;1.42;;;24.60;99.90;;;;;;5093657;28;20695;-77
2022/08/18 12:30:16;;;;;;;3.15;2.33;;;24.60;99.90;;;;;;5093778;28;20205;-77
2022/08/18 12:32:44;;;;;;;5.65;2.15;;;24.80;99.90;;;;;;5093507;28;20278;-77
2022/08/18 12:35:12;;;;;;;2.53;1.80;;;24.90;99.90;;;;;;5093748;28;20221;-77
2022/08/18 12:37:43;;;;;;;3.00;2.08;;;24.80;99.90;;;;;;5093764;28;20201;-77
2022/08/18 12:40:12;;;;;;;5.13;3.08;;;24.80;99.90;;;;;;5093780;28;20196;-77
2022/08/18 12:42:39;;;;;;;2.45;2.08;;;25.00;99.90;;;;;;5093619;28;20218;-77
2022/08/18 12:45:07;;;;;;;3.65;2.80;;;25.10;99.90;;;;;;5093905;28;20239;-77
2022/08/18 12:47:42;;;;;;;6.60;3.13;;;25.10;99.90;;;;;;5093303;28;20606;-77
2022/08/18 12:50:11;;;;;;;7.40;2.70;;;25.10;99.90;;;;;;5093651;28;20189;-77
2022/08/18 12:52:37;;;;;;;5.68;2.45;;;25.20;99.90;;;;;;5093765;28;20225;-77
2022/08/18 12:55:07;;;;;;;3.45;2.33;;;25.20;99.90;;;;;;5093472;28;20232;-77
2022/08/18 12:57:35;;;;;;;2.95;1.98;;;25.20;99.90;;;;;;5093529;28;20213;-77
2022/08/18 13:00:02;;;;;;;2.47;2.03;;;25.20;99.90;;;;;;5093403;28;20201;-77
2022/08/18 13:02:29;;;;;;;2.75;2.28;;;25.20;99.90;;;;;;5093436;28;20225;-77
2022/08/18 13:04:55;;;;;;;2.88;2.60;;;25.10;99.90;;;;;;5093212;28;20197;-77
2022/08/18 13:07:23;;;;;;;1.75;1.55;;;25.10;99.90;;;;;;5093412;28;20201;-77
2022/08/18 13:09:50;;;;;;;11.05;2.05;;;25.10;99.90;;;;;;5093422;28;20201;-77
2022/08/18 13:12:18;;;;;;;2.90;2.47;;;25.00;99.90;;;;;;5092904;28;20237;-78
2022/08/18 13:14:46;;;;;;;1.73;1.63;;;24.90;99.90;;;;;;5092465;28;20301;-77
2022/08/18 13:17:13;;;;;;;2.38;2.17;;;24.90;99.90;;;;;;5092550;28;20282;-77
2022/08/18 13:19:41;;;;;;;2.85;2.00;;;24.90;99.90;;;;;;5092366;28;20206;-77
2022/08/18 13:22:08;;;;;;;2.05;1.88;;;25.00;99.90;;;;;;5092373;28;20227;-77
2022/08/18 13:24:36;;;;;;;2.42;1.40;;;25.10;99.90;;;;;;5092357;28;20240;-77
2022/08/18 13:27:03;;;;;;;4.45;2.33;;;25.00;99.90;;;;;;5092378;28;20201;-77
2022/08/18 13:29:30;;;;;;;4.60;1.95;;;25.00;99.90;;;;;;5092036;28;20202;-77